Terminal Aerodrome Forecast
Issued by NWS

Home | Current Version | Previous Version | Text Only | Print | Product List | Glossary On
Versions: 1 2 3 4 5 6 7 8 9 10 11 12 13 14 15
559
FTUS46 KSGX 202337
TAFONT
TAF
KONT 202337Z 2100/2206 26011KT P6SM SKC
     FM210500 VRB04KT P6SM SKC
     FM211000 VRB02KT 6SM BR BKN012
     FM211700 VRB04KT P6SM SCT018
     FM212000 25011KT P6SM SKC
     FM220500 VRB04KT P6SM SKC=

USA.gov is the U.S. government's official web portal to all federal, state and local government web resources and services.